Time;durP1;ratioP1;P1;durP2;ratioP2;P2;SDS_P1;SDS_P2;PMS_P1;PMS_P2;Temp;Humidity;BMP_temperature;BMP_pressure;BME280_temperature;BME280_humidity;BME280_pressure;Samples;Min_cycle;Max_cycle;Signal;HPM_P1;HPM_P2
2021/11/07 00:03:10;;;;;;;16.75;10.08;;;;;;;6.15;74.13;100972.53;1747468;82;21477;-78
2021/11/07 00:05:40;;;;;;;15.98;10.18;;;;;;;6.15;74.15;100961.47;1746356;82;21078;-78
2021/11/07 00:10:47;;;;;;;15.60;9.78;;;;;;;6.16;74.13;100955.18;1747616;82;20959;-79
2021/11/07 00:13:13;;;;;;;21.68;10.60;;;;;;;6.17;74.13;100952.05;1746985;82;21015;-78
2021/11/07 00:15:39;;;;;;;17.52;9.33;;;;;;;6.18;74.12;100951.09;1746524;82;21058;-78
2021/11/07 00:18:12;;;;;;;17.12;10.10;;;;;;;6.18;74.11;100951.94;1747039;82;21028;-79
2021/11/07 00:20:35;;;;;;;14.15;9.15;;;;;;;6.18;74.11;100947.97;1744992;82;21927;-79
2021/11/07 00:23:16;;;;;;;17.50;9.83;;;;;;;6.17;74.10;100940.98;1747006;82;21601;-79
2021/11/07 00:25:41;;;;;;;15.98;9.28;;;;;;;6.16;74.10;100938.48;1743751;82;21079;-78
2021/11/07 00:28:01;;;;;;;14.50;9.70;;;;;;;6.15;74.08;100934.98;1744362;82;21155;-78
2021/11/07 00:31:30;;;;;;;16.27;10.25;;;;;;;6.15;74.08;100942.93;1746664;82;21012;-79
2021/11/07 00:38:18;;;;;;;18.15;9.33;;;;;;;6.13;74.06;100930.28;1693962;84;21053;-78
2021/11/07 00:40:52;;;;;;;16.62;9.85;;;;;;;6.11;74.02;100929.59;1735850;82;21008;-79
2021/11/07 00:43:34;;;;;;;19.80;10.70;;;;;;;6.11;74.04;100919.48;1733257;82;21032;-79
2021/11/07 00:45:46;;;;;;;14.40;9.73;;;;;;;6.12;74.06;100913.22;1726402;82;21050;-79
2021/11/07 00:51:04;;;;;;;14.43;8.95;;;;;;;6.11;74.03;100899.14;1736253;82;21529;-78
2021/11/07 00:53:45;;;;;;;17.95;10.88;;;;;;;6.10;74.01;100898.77;1735640;82;21305;-79
2021/11/07 00:59:07;;;;;;;17.32;9.40;;;;;;;6.09;73.99;100881.70;1736049;82;21179;-79
2021/11/07 01:01:27;;;;;;;13.62;9.13;;;;;;;6.11;73.99;100885.05;1734172;82;21499;-79
2021/11/07 01:03:53;;;;;;;12.95;9.03;;;;;;;6.11;73.95;100879.28;1735947;82;21658;-79
2021/11/07 01:06:19;;;;;;;16.57;11.08;;;;;;;6.11;73.93;100884.58;1736341;82;21534;-79
2021/11/07 01:08:48;;;;;;;18.10;9.78;;;;;;;6.11;73.92;100871.34;1736072;82;21099;-79
2021/11/07 01:11:15;;;;;;;17.07;8.63;;;;;;;6.10;73.89;100869.65;1736432;82;21039;-79
2021/11/07 01:13:41;;;;;;;13.10;8.60;;;;;;;6.10;73.90;100859.05;1736062;82;21027;-78
2021/11/07 01:16:08;;;;;;;14.38;9.65;;;;;;;6.08;73.85;100853.06;1736069;82;21107;-79
2021/11/07 01:18:34;;;;;;;14.73;9.23;;;;;;;6.08;73.80;100845.60;1736075;82;21020;-79
2021/11/07 01:21:00;;;;;;;14.07;9.43;;;;;;;6.05;73.77;100841.42;1736331;82;21047;-78
2021/11/07 01:23:31;;;;;;;14.63;8.83;;;;;;;6.02;73.75;100835.03;1736268;82;21183;-78
2021/11/07 01:26:01;;;;;;;10.30;7.58;;;;;;;6.01;73.73;100828.08;1735491;82;21023;-79
2021/11/07 01:28:23;;;;;;;16.15;7.78;;;;;;;6.00;73.71;100818.45;1734988;82;21488;-79
2021/11/07 01:30:56;;;;;;;15.55;7.50;;;;;;;6.00;73.70;100818.45;1736356;82;21011;-79
2021/11/07 01:33:27;;;;;;;14.40;7.75;;;;;;;5.99;73.69;100819.41;1735504;82;21062;-78
2021/11/07 01:38:38;;;;;;;9.80;6.42;;;;;;;5.97;73.65;100802.84;1735745;82;21501;-78
2021/11/07 01:41:16;;;;;;;11.73;7.42;;;;;;;5.97;73.65;100802.84;1735679;82;21047;-78
2021/11/07 01:43:32;;;;;;;13.55;7.15;;;;;;;5.96;73.62;100809.93;1733883;82;21067;-78
2021/11/07 01:46:33;;;;;;;12.78;7.50;;;;;;;5.96;73.61;100805.12;1736152;82;21047;-78
2021/11/07 01:48:40;;;;;;;15.53;8.28;;;;;;;5.95;73.62;100804.75;1725447;82;21208;-78
2021/11/07 01:51:01;;;;;;;9.53;6.17;;;;;;;5.95;73.56;100799.46;1735648;82;21090;-78
2021/11/07 01:53:35;;;;;;;12.47;6.67;;;;;;;5.96;73.54;100798.50;1736263;82;21567;-78
2021/11/07 01:56:05;;;;;;;11.95;6.25;;;;;;;5.96;73.53;100798.50;1736267;82;21011;-78
2021/11/07 01:58:31;;;;;;;12.78;7.45;;;;;;;5.95;73.49;100796.81;1735899;82;21098;-78
2021/11/07 02:00:58;;;;;;;10.93;7.10;;;;;;;5.94;73.47;100791.19;1736144;82;21168;-78
2021/11/07 02:03:24;;;;;;;11.53;6.67;;;;;;;5.93;73.47;100782.88;1735960;82;21078;-78
2021/11/07 02:05:50;;;;;;;12.75;7.42;;;;;;;5.93;73.47;100770.49;1736403;82;21051;-78
2021/11/07 02:08:19;;;;;;;12.53;7.15;;;;;;;5.95;73.45;100770.34;1736249;82;21020;-77
2021/11/07 02:10:46;;;;;;;15.18;9.33;;;;;;;5.94;73.43;100770.02;1735607;82;21012;-79
2021/11/07 02:13:12;;;;;;;12.47;7.17;;;;;;;5.95;73.43;100759.75;1735892;82;21969;-78
2021/11/07 02:15:38;;;;;;;11.48;7.47;;;;;;;5.97;73.41;100762.65;1736031;82;21047;-78
2021/11/07 02:18:04;;;;;;;12.82;7.75;;;;;;;5.98;73.39;100750.26;1736035;82;20991;-78
2021/11/07 02:20:34;;;;;;;18.90;7.67;;;;;;;5.98;73.38;100751.58;1736033;82;21079;-78
2021/11/07 02:23:06;;;;;;;10.78;7.65;;;;;;;5.98;73.36;100735.70;1736449;82;21016;-78
2021/11/07 02:25:31;;;;;;;15.58;8.25;;;;;;;5.99;73.32;100732.05;1736127;82;21166;-78
2021/11/07 02:27:57;;;;;;;10.40;7.78;;;;;;;6.04;73.28;100728.54;1736004;82;20935;-78
2021/11/07 02:30:23;;;;;;;10.72;7.03;;;;;;;6.04;73.24;100729.86;1736330;82;21489;-78
2021/11/07 02:32:50;;;;;;;10.40;7.78;;;;;;;6.05;73.20;100736.84;1736447;82;21035;-78
2021/11/07 02:35:17;;;;;;;10.50;7.22;;;;;;;6.08;73.16;100736.58;1736394;82;21011;-78
2021/11/07 02:37:43;;;;;;;8.73;6.40;;;;;;;6.09;73.12;100724.18;1743149;82;21134;-77
2021/11/07 02:40:10;;;;;;;13.08;7.70;;;;;;;6.11;73.08;100723.06;1747238;82;21249;-77
2021/11/07 02:42:39;;;;;;;13.43;7.55;;;;;;;6.12;73.05;100716.81;1747438;82;20988;-78
2021/11/07 02:45:05;;;;;;;10.75;6.87;;;;;;;6.12;73.03;100711.52;1747430;82;21031;-78
2021/11/07 02:47:31;;;;;;;14.25;7.20;;;;;;;6.14;73.00;100701.61;1746915;82;21051;-78
2021/11/07 02:49:57;;;;;;;12.65;6.37;;;;;;;6.15;72.96;100690.06;1747730;82;21164;-78
2021/11/07 02:52:23;;;;;;;8.78;6.33;;;;;;;6.15;72.89;100689.22;1746947;82;21489;-78
2021/11/07 02:54:50;;;;;;;10.93;6.62;;;;;;;6.14;72.89;100690.18;1747421;82;21606;-78
2021/11/07 02:57:19;;;;;;;10.13;6.40;;;;;;;6.15;72.85;100688.73;1747368;82;21031;-78
2021/11/07 02:59:46;;;;;;;9.88;6.40;;;;;;;6.15;72.84;100684.77;1747455;82;21486;-78
2021/11/07 03:02:12;;;;;;;9.88;6.10;;;;;;;6.17;72.79;100692.08;1747456;82;21137;-78
2021/11/07 03:04:39;;;;;;;8.83;5.58;;;;;;;6.19;72.76;100686.17;1747311;82;21094;-78
2021/11/07 03:07:06;;;;;;;9.53;6.37;;;;;;;6.21;72.73;100673.63;1747598;82;20996;-78
2021/11/07 03:09:36;;;;;;;9.95;5.83;;;;;;;6.24;72.71;100678.64;1747520;82;21011;-78
2021/11/07 03:12:03;;;;;;;10.68;6.03;;;;;;;6.26;72.66;100666.09;1747723;82;21109;-78
2021/11/07 03:14:32;;;;;;;10.88;6.17;;;;;;;6.29;72.62;100658.39;1747682;82;21567;-79
2021/11/07 03:16:58;;;;;;;12.85;7.25;;;;;;;6.30;72.57;100656.91;1746970;82;21566;-79
2021/11/07 03:19:26;;;;;;;9.45;6.08;;;;;;;6.32;72.54;100647.52;1747289;82;21059;-79
2021/11/07 03:21:53;;;;;;;10.68;7.17;;;;;;;6.34;72.50;100658.31;1747513;82;20988;-79
2021/11/07 03:24:19;;;;;;;13.40;7.53;;;;;;;6.35;72.46;100648.08;1747402;82;21670;-80
2021/11/07 03:26:45;;;;;;;11.50;6.95;;;;;;;6.37;72.41;100642.62;1747007;82;21933;-80
2021/11/07 03:29:12;;;;;;;14.68;7.75;;;;;;;6.36;72.38;100637.84;1747505;82;21015;-79
2021/11/07 03:34:11;;;;;;;11.63;6.47;;;;;;;6.38;72.29;100625.77;1747483;82;20995;-79
2021/11/07 03:36:44;;;;;;;11.70;6.97;;;;;;;6.39;72.25;100624.80;1746673;82;21067;-79
2021/11/07 03:39:11;;;;;;;9.18;6.25;;;;;;;6.39;72.20;100621.67;1746759;82;21727;-79
2021/11/07 03:41:39;;;;;;;10.13;7.28;;;;;;;6.40;72.15;100609.27;1747435;82;21144;-79
2021/11/07 03:44:05;;;;;;;9.85;6.47;;;;;;;6.40;72.14;100607.43;1747456;82;21022;-78
2021/11/07 03:46:33;;;;;;;9.90;6.37;;;;;;;6.42;72.12;100593.58;1747353;82;21030;-78
2021/11/07 03:49:00;;;;;;;9.43;6.35;;;;;;;6.42;72.06;100589.61;1747508;82;21022;-79
2021/11/07 03:51:28;;;;;;;9.53;6.00;;;;;;;6.42;72.03;100583.47;1747686;82;21765;-79
2021/11/07 03:53:53;;;;;;;12.40;6.20;;;;;;;6.42;72.04;100575.03;1747369;82;21571;-78
2021/11/07 03:56:19;;;;;;;9.48;5.78;;;;;;;6.44;72.03;100564.28;1747392;82;21500;-79
2021/11/07 03:58:46;;;;;;;9.98;6.10;;;;;;;6.45;72.00;100561.99;1747492;82;21027;-78
2021/11/07 04:01:13;;;;;;;9.15;5.67;;;;;;;6.45;71.97;100552.72;1747118;82;21008;-78
2021/11/07 04:03:39;;;;;;;8.00;5.45;;;;;;;6.44;71.95;100541.28;1747492;82;21945;-78
2021/11/07 04:06:05;;;;;;;9.20;5.87;;;;;;;6.43;71.93;100541.45;1746761;82;21546;-78
2021/11/07 04:08:31;;;;;;;9.83;6.05;;;;;;;6.40;71.91;100531.94;1747237;82;21082;-78
2021/11/07 04:10:57;;;;;;;10.45;5.80;;;;;;;6.36;71.90;100530.58;1747483;82;20987;-78
2021/11/07 04:13:24;;;;;;;7.33;4.83;;;;;;;6.34;71.93;100520.59;1747347;82;21006;-78
2021/11/07 04:15:50;;;;;;;15.55;6.67;;;;;;;6.32;71.93;100523.88;1747335;82;21125;-78
2021/11/07 04:18:16;;;;;;;11.05;5.92;;;;;;;6.30;71.94;100521.84;1746594;82;21015;-78
2021/11/07 04:20:42;;;;;;;8.48;6.03;;;;;;;6.30;71.96;100515.70;1747525;82;21007;-78
2021/11/07 04:23:08;;;;;;;8.90;5.70;;;;;;;6.29;71.99;100516.70;1747207;82;21637;-78
2021/11/07 04:25:34;;;;;;;9.95;5.00;;;;;;;6.28;72.01;100507.08;1747434;82;21656;-77
2021/11/07 04:28:01;;;;;;;10.65;5.45;;;;;;;6.29;72.04;100513.57;1747213;82;22123;-77
2021/11/07 04:30:27;;;;;;;10.65;6.45;;;;;;;6.25;72.03;100500.25;1747040;82;21085;-77
2021/11/07 04:32:53;;;;;;;10.18;6.78;;;;;;;6.31;72.04;100512.09;1747098;82;21042;-78
2021/11/07 04:35:19;;;;;;;9.90;5.65;;;;;;;6.31;72.03;100502.33;1746880;82;21059;-78
2021/11/07 04:37:45;;;;;;;12.63;5.78;;;;;;;6.32;72.01;100492.09;1747314;82;21002;-78
2021/11/07 04:40:14;;;;;;;14.68;7.10;;;;;;;6.35;72.00;100491.81;1747040;82;21187;-78
2021/11/07 04:42:41;;;;;;;10.98;5.90;;;;;;;6.36;71.97;100481.58;1747360;82;21063;-78
2021/11/07 04:45:07;;;;;;;11.68;6.65;;;;;;;6.37;71.93;100472.62;1747268;82;21055;-78
2021/11/07 04:47:33;;;;;;;16.35;8.53;;;;;;;6.40;71.93;100472.34;1747038;82;21082;-78
2021/11/07 04:49:59;;;;;;;19.37;7.70;;;;;;;6.40;71.89;100463.59;1747249;82;20999;-79
2021/11/07 04:52:26;;;;;;;10.88;5.80;;;;;;;6.41;71.84;100471.37;1747487;82;21753;-79
2021/11/07 04:54:52;;;;;;;11.28;7.20;;;;;;;6.42;71.79;100467.76;1747370;82;21031;-79
2021/11/07 04:57:18;;;;;;;15.55;7.20;;;;;;;6.44;71.72;100457.84;1747414;82;21700;-79
2021/11/07 04:59:44;;;;;;;10.30;6.65;;;;;;;6.47;71.66;100454.91;1747556;82;21035;-78
2021/11/07 05:02:10;;;;;;;9.98;6.47;;;;;;;6.50;71.60;100448.51;1766708;80;20907;-78
2021/11/07 05:04:37;;;;;;;9.88;6.55;;;;;;;6.54;71.53;100442.76;1768885;79;21027;-79
2021/11/07 05:07:03;;;;;;;11.15;6.80;;;;;;;6.54;71.45;100433.48;1784036;80;20995;-79
2021/11/07 05:09:31;;;;;;;14.20;7.12;;;;;;;6.56;71.37;100427.22;1784212;80;21467;-79
2021/11/07 05:11:57;;;;;;;11.50;6.62;;;;;;;6.59;71.30;100425.61;1784502;80;21018;-79
2021/11/07 05:14:23;;;;;;;13.32;7.75;;;;;;;6.59;71.24;100417.66;1774089;80;21003;-79
2021/11/07 05:16:49;;;;;;;15.30;7.08;;;;;;;6.58;71.19;100408.06;1784397;80;21061;-79
2021/11/07 05:19:15;;;;;;;9.05;6.60;;;;;;;6.58;71.14;100419.98;1783761;80;20893;-78
2021/11/07 05:21:41;;;;;;;10.20;6.33;;;;;;;6.57;71.09;100409.03;1784221;80;21120;-78
2021/11/07 05:24:08;;;;;;;12.35;6.08;;;;;;;6.57;71.04;100409.03;1777981;80;21042;-78
2021/11/07 05:26:35;;;;;;;12.50;7.28;;;;;;;6.57;71.00;100410.36;1784344;80;21097;-78
2021/11/07 05:29:02;;;;;;;8.88;6.30;;;;;;;6.56;70.95;100411.33;1784076;80;21171;-78
2021/11/07 05:31:29;;;;;;;9.90;5.85;;;;;;;6.57;70.91;100415.17;1765895;80;21007;-78
2021/11/07 05:33:55;;;;;;;9.18;6.25;;;;;;;6.60;70.88;100421.50;1769435;80;21081;-78
2021/11/07 05:36:22;;;;;;;9.98;6.40;;;;;;;6.63;70.81;100419.05;1765319;79;21055;-78
2021/11/07 05:38:48;;;;;;;10.18;6.10;;;;;;;6.66;70.79;100414.78;1763031;80;21070;-78
2021/11/07 05:41:14;;;;;;;11.95;6.95;;;;;;;6.67;70.75;100412.48;1755502;81;21130;-78
2021/11/07 05:43:41;;;;;;;10.75;6.28;;;;;;;6.68;70.71;100392.96;1781795;80;20974;-79
2021/11/07 05:46:07;;;;;;;8.70;5.75;;;;;;;6.69;70.70;100391.47;1782288;80;21026;-79
2021/11/07 05:48:38;;;;;;;7.97;5.30;;;;;;;6.68;70.66;100383.20;1772895;80;20998;-78
2021/11/07 05:51:01;;;;;;;10.72;6.00;;;;;;;6.70;70.63;100372.44;1742933;81;21364;-78
2021/11/07 05:53:28;;;;;;;10.60;6.30;;;;;;;6.70;70.59;100375.09;1747277;80;21102;-78
2021/11/07 05:55:54;;;;;;;8.08;5.53;;;;;;;6.69;70.56;100371.59;1772950;80;21054;-78
2021/11/07 05:58:20;;;;;;;12.03;6.55;;;;;;;6.68;70.56;100366.46;1768642;81;20974;-78
2021/11/07 06:00:47;;;;;;;7.45;5.40;;;;;;;6.66;70.52;100369.25;1727275;82;21042;-78
2021/11/07 06:03:13;;;;;;;15.38;9.48;;;;;;;6.66;70.49;100373.70;1784163;79;21078;-78
2021/11/07 06:05:39;;;;;;;12.68;7.47;;;;;;;6.66;70.43;100365.75;1793938;79;21526;-79
2021/11/07 06:08:05;;;;;;;10.03;6.15;;;;;;;6.63;70.39;100355.45;1786626;79;21007;-78
2021/11/07 06:10:31;;;;;;;11.85;6.90;;;;;;;6.62;70.35;100352.45;1790830;80;20976;-79
2021/11/07 06:12:57;;;;;;;10.35;6.80;;;;;;;6.63;70.27;100346.17;1789380;79;21565;-79
2021/11/07 06:15:24;;;;;;;11.68;5.58;;;;;;;6.60;70.24;100347.31;1771595;80;21510;-79
2021/11/07 06:17:50;;;;;;;11.70;6.97;;;;;;;6.57;70.20;100346.77;1785586;79;21138;-79
2021/11/07 06:20:16;;;;;;;15.00;6.83;;;;;;;6.59;70.15;100346.13;1739973;82;20991;-79
2021/11/07 06:22:42;;;;;;;11.33;6.80;;;;;;;6.59;70.07;100327.58;1785692;80;21045;-79
2021/11/07 06:25:08;;;;;;;9.85;6.40;;;;;;;6.61;70.03;100334.91;1785978;80;20995;-79
2021/11/07 06:27:35;;;;;;;11.18;7.20;;;;;;;6.63;69.94;100328.95;1785552;80;21034;-79
2021/11/07 06:30:05;;;;;;;9.98;6.83;;;;;;;6.62;69.92;100333.90;1786042;80;21136;-79
2021/11/07 06:32:31;;;;;;;15.60;8.48;;;;;;;6.66;69.86;100332.14;1785753;80;21055;-79
2021/11/07 06:34:57;;;;;;;16.48;8.98;;;;;;;6.72;69.82;100330.74;1785725;80;21078;-79
2021/11/07 06:37:23;;;;;;;20.77;10.82;;;;;;;6.77;69.76;100324.01;1785781;80;21055;-79
2021/11/07 06:39:50;;;;;;;63.15;24.55;;;;;;;6.83;69.68;100325.22;1782362;80;21027;-79
2021/11/07 06:42:16;;;;;;;20.20;10.90;;;;;;;6.85;69.60;100339.18;1782425;80;21141;-79
2021/11/07 06:44:42;;;;;;;13.60;8.08;;;;;;;6.84;69.55;100327.73;1782172;80;21520;-79
2021/11/07 06:47:09;;;;;;;11.70;7.85;;;;;;;6.82;69.50;100320.92;1782227;80;21026;-79
2021/11/07 06:49:35;;;;;;;10.65;7.53;;;;;;;6.83;69.43;100309.32;1782155;80;21034;-79
2021/11/07 06:52:03;;;;;;;10.30;7.33;;;;;;;6.84;69.36;100301.72;1782487;80;20980;-79
2021/11/07 06:54:29;;;;;;;9.50;6.87;;;;;;;6.87;69.30;100308.05;1782361;80;21052;-79
2021/11/07 06:56:55;;;;;;;11.28;6.58;;;;;;;6.86;69.22;100302.42;1782429;80;21039;-79
2021/11/07 06:59:22;;;;;;;15.83;7.85;;;;;;;6.87;69.16;100306.72;1782360;80;21034;-79
2021/11/07 07:01:48;;;;;;;22.62;8.75;;;;;;;6.89;69.11;100305.61;1782180;80;21070;-79
2021/11/07 07:04:14;;;;;;;14.10;6.20;;;;;;;6.92;69.09;100303.15;1782345;80;20983;-79
2021/11/07 07:06:40;;;;;;;13.15;6.90;;;;;;;6.93;69.04;100296.88;1782325;80;21009;-79
2021/11/07 07:09:07;;;;;;;10.98;6.58;;;;;;;6.97;68.96;100282.31;1782625;80;21476;-79
2021/11/07 07:11:43;;;;;;;13.68;7.50;;;;;;;6.99;68.92;100284.34;1781799;80;21101;-79
2021/11/07 07:15:06;;;;;;;14.90;7.17;;;;;;;7.02;68.89;100272.10;1780864;80;21042;-79
2021/11/07 07:24:46;;;;;;;10.80;6.87;;;;;;;7.07;68.57;100277.80;1782292;80;20987;-79
2021/11/07 07:30:04;;;;;;;10.70;6.78;;;;;;;7.09;68.39;100265.21;1782463;80;21322;-78
2021/11/07 07:32:23;;;;;;;12.98;7.28;;;;;;;7.11;68.29;100261.91;1778611;80;21542;-77
2021/11/07 07:34:41;;;;;;;12.75;8.18;;;;;;;7.13;68.25;100258.63;1780285;80;20988;-77
2021/11/07 07:37:05;;;;;;;9.80;6.55;;;;;;;7.18;68.17;100258.98;1781936;80;21042;-77
2021/11/07 07:39:31;;;;;;;11.15;6.85;;;;;;;7.25;68.09;100264.02;1782386;80;20991;-78
2021/11/07 07:41:57;;;;;;;17.20;8.45;;;;;;;7.33;68.04;100266.77;1782407;80;21054;-77
2021/11/07 07:44:23;;;;;;;12.05;8.05;;;;;;;7.41;67.99;100257.56;1782233;80;21098;-77
2021/11/07 07:46:49;;;;;;;11.63;7.70;;;;;;;7.45;67.92;100258.92;1782532;80;20980;-77
2021/11/07 07:49:17;;;;;;;10.15;7.30;;;;;;;7.45;67.81;100258.92;1782668;80;21448;-77
2021/11/07 07:51:45;;;;;;;19.35;9.70;;;;;;;7.44;67.75;100255.92;1782500;80;20987;-78
2021/11/07 07:54:12;;;;;;;20.23;9.68;;;;;;;7.41;67.64;100249.59;1782398;80;21019;-78
2021/11/07 07:56:38;;;;;;;14.15;8.15;;;;;;;7.38;67.59;100252.56;1782680;80;21133;-78
2021/11/07 07:59:05;;;;;;;26.85;12.20;;;;;;;7.34;67.50;100260.48;1781860;80;21063;-78
2021/11/07 08:01:31;;;;;;;15.63;8.23;;;;;;;7.31;67.49;100251.51;1782465;80;21078;-78
2021/11/07 08:03:57;;;;;;;14.80;8.33;;;;;;;7.31;67.41;100238.24;1782575;80;21531;-78
2021/11/07 08:06:23;;;;;;;17.95;8.20;;;;;;;7.31;67.36;100234.75;1782649;80;21043;-78
2021/11/07 08:08:49;;;;;;;13.80;7.92;;;;;;;7.29;67.31;100228.27;1782786;80;21059;-78
2021/11/07 08:11:15;;;;;;;10.23;6.53;;;;;;;7.29;67.26;100226.94;1782434;80;20992;-77
2021/11/07 08:13:42;;;;;;;11.50;7.28;;;;;;;7.29;67.23;100220.79;1782497;80;21012;-78
2021/11/07 08:16:08;;;;;;;10.95;6.67;;;;;;;7.32;67.22;100223.13;1782595;80;21027;-78
2021/11/07 08:18:35;;;;;;;9.28;6.22;;;;;;;7.32;67.20;100216.02;1782803;80;22285;-78
2021/11/07 08:21:01;;;;;;;9.08;5.90;;;;;;;7.36;67.15;100219.19;1782484;80;21448;-78
2021/11/07 08:23:27;;;;;;;10.53;6.33;;;;;;;7.41;67.06;100215.11;1782283;80;21487;-78
2021/11/07 08:25:53;;;;;;;9.35;6.33;;;;;;;7.46;66.99;100212.81;1782489;80;21456;-78
2021/11/07 08:28:21;;;;;;;8.10;6.05;;;;;;;7.51;66.97;100215.01;1782200;80;21003;-78
2021/11/07 08:30:51;;;;;;;9.73;6.12;;;;;;;7.55;66.88;100212.39;1782516;80;21007;-78
2021/11/07 08:33:16;;;;;;;8.55;6.45;;;;;;;7.58;66.86;100209.91;1782036;80;21215;-78
2021/11/07 08:35:44;;;;;;;16.77;7.55;;;;;;;7.61;66.79;100209.59;1782672;80;20956;-78
2021/11/07 08:38:20;;;;;;;9.40;6.50;;;;;;;7.64;66.77;100218.56;1782445;80;21018;-78
2021/11/07 08:40:49;;;;;;;11.38;7.10;;;;;;;7.71;66.74;100218.28;1783960;80;21097;-79
2021/11/07 09:05:07;;;;;;;7.72;5.47;;;;;;;7.97;66.46;100227.09;1712348;82;21016;-78
2021/11/07 09:10:06;;;;;;;18.75;8.13;;;;;;;7.89;66.39;100215.09;1712453;82;21095;-78
2021/11/07 09:12:32;;;;;;;13.95;7.85;;;;;;;7.86;66.32;100221.55;1712200;83;21146;-77
2021/11/07 09:14:58;;;;;;;20.52;9.55;;;;;;;7.82;66.28;100223.34;1712362;83;21071;-78
2021/11/07 09:17:24;;;;;;;14.53;7.55;;;;;;;7.81;66.28;100217.72;1712309;83;21032;-78
2021/11/07 09:19:53;;;;;;;15.35;8.10;;;;;;;7.81;66.28;100222.50;1712129;83;21123;-78
2021/11/07 09:23:07;;;;;;;14.05;7.95;;;;;;;7.84;66.32;100222.22;1712291;82;21026;-78
2021/11/07 09:25:09;;;;;;;14.00;7.37;;;;;;;7.83;66.35;100213.06;1686825;83;21489;-78
2021/11/07 09:27:32;;;;;;;21.23;9.53;;;;;;;7.81;66.34;100216.38;1705177;82;21171;-78
2021/11/07 09:32:39;;;;;;;29.72;14.60;;;;;;;7.77;66.55;100220.34;1712441;82;21029;-78
2021/11/07 09:37:32;;;;;;;14.33;7.75;;;;;;;7.63;66.94;100211.62;1785469;80;21011;-78
2021/11/07 09:40:00;;;;;;;20.43;9.45;;;;;;;7.59;67.17;100208.44;1777591;80;20988;-78
2021/11/07 09:44:51;;;;;;;13.48;6.87;;;;;;;7.49;67.65;100199.23;1774101;80;21035;-78
2021/11/07 09:47:17;;;;;;;25.90;12.00;;;;;;;7.45;67.83;100192.59;1774198;80;21062;-78
2021/11/07 09:49:46;;;;;;;24.20;9.90;;;;;;;7.45;68.06;100187.78;1773978;80;21088;-79
2021/11/07 09:52:19;;;;;;;21.75;9.25;;;;;;;7.44;68.25;100183.45;1773724;80;21072;-79
2021/11/07 09:54:47;;;;;;;14.55;7.67;;;;;;;7.42;68.41;100180.94;1773427;80;21046;-80
2021/11/07 09:57:17;;;;;;;16.17;9.00;;;;;;;7.37;68.68;100191.20;1773721;80;21063;-77
2021/11/07 09:59:42;;;;;;;16.42;8.45;;;;;;;7.31;68.89;100180.38;1773292;80;37607;-79
2021/11/07 10:02:08;;;;;;;16.62;8.88;;;;;;;7.34;69.13;100184.88;1773793;80;21625;-79
2021/11/07 10:04:37;;;;;;;14.40;8.35;;;;;;;7.32;69.46;100172.25;1773975;80;21544;-79
2021/11/07 10:07:25;;;;;;;27.27;12.33;;;;;;;7.33;69.62;100171.27;1773858;80;21459;-79
2021/11/07 10:09:55;;;;;;;20.92;11.20;;;;;;;7.33;69.88;100173.92;1773960;80;21574;-78
2021/11/07 10:12:31;;;;;;;26.48;12.00;;;;;;;7.32;70.10;100174.90;1773860;80;21464;-78
2021/11/07 10:14:55;;;;;;;19.50;10.90;;;;;;;7.31;70.33;100168.44;1771523;80;21559;-79
2021/11/07 10:17:32;;;;;;;23.85;13.38;;;;;;;7.36;70.52;100163.00;1773579;80;21004;-79
2021/11/07 10:20:18;;;;;;;19.85;11.03;;;;;;;7.50;70.72;100158.45;1770474;80;21042;-80
2021/11/07 10:22:39;;;;;;;19.05;10.70;;;;;;;7.64;70.89;100150.89;1772947;80;21007;-79
2021/11/07 10:25:15;;;;;;;14.53;8.55;;;;;;;7.77;71.07;100161.94;1747569;81;20991;-79
2021/11/07 10:27:39;;;;;;;16.87;9.45;;;;;;;7.87;71.17;100146.72;1772514;80;21543;-79
2021/11/07 10:30:21;;;;;;;15.72;9.23;;;;;;;7.93;71.28;100154.05;1773570;80;21091;-77
2021/11/07 10:32:53;;;;;;;17.45;9.60;;;;;;;7.93;71.35;100146.92;1772072;80;21035;-77
2021/11/07 10:35:33;;;;;;;13.45;8.15;;;;;;;7.95;71.46;100141.46;1771786;80;20996;-77
2021/11/07 10:40:37;;;;;;;15.28;8.55;;;;;;;8.01;71.65;100127.54;1779872;80;21287;-77
2021/11/07 10:53:57;;;;;;;19.20;12.28;;;;;;;8.11;72.11;100109.64;1782396;80;21551;-78
2021/11/07 10:56:24;;;;;;;14.80;8.60;;;;;;;8.01;72.22;100116.42;1782431;80;21030;-78
2021/11/07 10:58:51;;;;;;;14.28;9.83;;;;;;;7.96;72.28;100110.75;1782623;80;21626;-78
2021/11/07 11:01:23;;;;;;;14.80;8.83;;;;;;;7.86;72.36;100110.54;1782675;80;20999;-78
2021/11/07 11:03:54;;;;;;;11.28;7.42;;;;;;;7.79;72.53;100097.56;1782505;80;21508;-78
2021/11/07 11:06:21;;;;;;;12.88;7.92;;;;;;;7.70;72.69;100104.68;1782546;80;21323;-78
2021/11/07 11:08:54;;;;;;;13.60;7.60;;;;;;;7.65;72.89;100100.82;1782366;80;21003;-78
2021/11/07 11:11:57;;;;;;;12.75;8.83;;;;;;;7.64;73.03;100095.16;1782380;80;21074;-78
2021/11/07 11:14:12;;;;;;;11.33;8.18;;;;;;;7.60;73.24;100092.00;1778746;80;21035;-79
2021/11/07 11:22:28;;;;;;;14.73;9.60;;;;;;;7.63;73.65;100080.25;1782319;80;20978;-79
2021/11/07 11:25:05;;;;;;;12.63;8.93;;;;;;;7.64;73.83;100081.89;1780310;80;21094;-79
2021/11/07 11:27:51;;;;;;;13.85;8.95;;;;;;;7.69;73.91;100075.63;1780871;80;21563;-78
2021/11/07 11:30:26;;;;;;;11.28;7.75;;;;;;;7.70;73.99;100085.27;1780707;80;21035;-77
2021/11/07 11:35:22;;;;;;;11.12;8.33;;;;;;;7.75;74.15;100071.84;1782681;80;21131;-79
2021/11/07 11:40:21;;;;;;;12.98;8.03;;;;;;;7.79;74.21;100061.73;1782408;80;20903;-79
2021/11/07 11:45:11;;;;;;;11.38;8.38;;;;;;;7.82;74.28;100057.42;1782971;80;20999;-79
2021/11/07 11:55:57;;;;;;;14.80;8.45;;;;;;;7.91;74.38;100048.52;1782404;80;21067;-80
2021/11/07 11:58:59;;;;;;;25.00;12.53;;;;;;;7.91;74.38;100050.68;1782164;80;21140;-79
2021/11/07 12:01:32;;;;;;;13.48;7.22;;;;;;;7.94;74.38;100054.83;1782316;80;21019;-79
2021/11/07 12:04:01;;;;;;;13.70;8.35;;;;;;;7.92;74.37;100062.94;1781082;80;21054;-79
2021/11/07 12:10:01;;;;;;;14.33;8.03;;;;;;;7.89;74.37;100061.10;1782356;80;21074;-79
2021/11/07 12:11:52;;;;;;;12.60;8.35;;;;;;;7.88;74.35;100063.45;1775272;80;21555;-79
2021/11/07 12:14:19;;;;;;;15.98;9.53;;;;;;;7.83;74.35;100061.75;1781722;80;21587;-79
2021/11/07 12:17:00;;;;;;;14.30;7.95;;;;;;;7.82;74.37;100056.09;1777548;80;21035;-79
2021/11/07 12:19:44;;;;;;;17.00;9.13;;;;;;;7.79;74.36;100065.22;1759747;81;21515;-79
2021/11/07 12:22:24;;;;;;;15.32;9.23;;;;;;;7.79;74.37;100049.79;1764741;80;21019;-79
2021/11/07 12:24:58;;;;;;;16.37;8.18;;;;;;;7.79;74.38;100046.64;1738211;82;21148;-79
2021/11/07 12:27:42;;;;;;;13.18;8.08;;;;;;;7.82;74.41;100042.34;1784784;80;21177;-79
2021/11/07 12:30:26;;;;;;;15.80;11.10;;;;;;;7.83;74.40;100039.19;1737088;81;21046;-79
2021/11/07 12:33:19;;;;;;;57.17;25.12;;;;;;;7.83;74.40;100045.33;1772972;80;21053;-78
2021/11/07 12:41:27;;;;;;;12.47;7.85;;;;;;;7.87;74.43;100040.53;1774964;80;21438;-78
2021/11/07 12:44:00;;;;;;;22.65;15.78;;;;;;;7.88;74.44;100034.23;1764941;80;20999;-77
2021/11/07 12:46:52;;;;;;;19.20;14.45;;;;;;;7.87;74.44;100033.89;1761981;80;21026;-77
2021/11/07 12:49:21;;;;;;;11.50;8.10;;;;;;;7.85;74.45;100033.20;1741974;82;21062;-77
2021/11/07 12:51:51;;;;;;;12.35;6.92;;;;;;;7.86;74.47;100033.55;1748530;80;21170;-77
2021/11/07 12:54:29;;;;;;;9.68;5.92;;;;;;;7.86;74.48;100029.08;1760670;80;21042;-77
2021/11/07 12:57:08;;;;;;;12.50;7.30;;;;;;;7.88;74.49;100026.28;1766960;80;21500;-78
2021/11/07 12:59:53;;;;;;;10.78;6.65;;;;;;;7.83;74.49;100026.75;1754305;80;21072;-80
2021/11/07 13:02:31;;;;;;;11.12;7.00;;;;;;;7.80;74.54;100030.22;1754106;80;21070;-79
2021/11/07 13:05:32;;;;;;;26.42;12.58;;;;;;;7.75;74.55;100027.20;1764988;80;21068;-80
2021/11/07 13:08:04;;;;;;;;;;;;;;;7.73;74.59;100033.19;1758350;80;21050;-78
2021/11/07 13:10:39;;;;;;;10.32;6.85;;;;;;;7.72;74.64;100020.90;1758838;80;20458;-78
2021/11/07 13:21:28;;;;;;;10.20;7.33;;;;;;;7.73;74.75;100033.19;1753245;80;21522;-78
2021/11/07 13:30:03;;;;;;;21.50;10.60;;;;;;;7.68;74.89;100028.84;1747352;80;21056;-78
2021/11/07 13:35:04;;;;;;;13.62;7.83;;;;;;;7.64;74.97;100018.20;1760362;80;21641;-78
2021/11/07 13:37:42;;;;;;;15.43;9.55;;;;;;;7.66;74.99;100026.86;1745282;80;21120;-79